Bozeman, MT

10:24 AM MDT on August 27, 2016 (GMT -0600)
Bon-Ton | | Change Station
Active Advisory: Air Quality Alert

Elev 4884 ft 45.67 °N, 111.04 °W | Updated 3 seconds ago

Clear
Clear
58.8 °F
Feels Like 58.8 °F
N
0.0
Wind Variable Wind from East
Gusts 1.0 mph

Today
High -- | Low -- °F
--% Chance of Precip.
Yesterday
High -- | Low -- °F
Precip. -- in
Pressure 29.92 in
Visibility 10.0 miles
Clouds Clear
Dew Point 41 °F
Humidity 52%
Rainfall 0.00 in
Snow Depth Not available.
6:40 AM 8:10 PM
Waning Crescent, 23% visible
METAR KBZN 271556Z 03004KT 10SM CLR 14/06 A2998 RMK AO2 SLP131 T01440056
Pressure 29.92 in
Visibility 10.0 miles
Clouds Clear
Dew Point 41 °F
Humidity 52%
Rainfall 0.00 in
Snow Depth Not available.
6:40 AM 8:10 PM
Waning Crescent, 23% visible
METAR KBZN 271556Z 03004KT 10SM CLR 14/06 A2998 RMK AO2 SLP131 T01440056

10-Day Weather Forecast

Almanac

Astronomy

Aug. 27, 2016 Rise Set
Actual Time
Civil Twilight
Nautical Twilight
Astronomical Twilight
Moon
Length of Visible Light
Length of Day
Tomorrow will be .
, % of the Moon is Illuminated

Today's Extremes

State Highs State Lows

Community

WunderPhotos

Upload Photos

1,935,375 photos uploaded!

WunderBlog® & News

Nearby

Air Quality

  Air Quality AQ Index Pollutant
Not available.

Snow Depth

Station Depth Elevation

Earthquake Activity

City Distance Mag. Time & Date
Minimum magnitude displayed is 2.5.

Coastal Water Temperatures

Place Temperature

Stations

Nearby Weather Stations

Station Location Temp. Windchill Dew Point Humidity Wind Precip. Elev Updated Type
                   

Watches & Warnings

Air Quality Alert
Issued: 9:00 AM MDT Aug. 27, 2016 – National Weather Service

The Montana department of environmental quality has issued an air
quality alert for Gallatin County in effect until further notice due
to nearby wildfire activity. Significant air quality impacts are
expected in the southern portion of Gallatin County near Yellowstone
National Park and the community of Thompson Falls in Sanders County.
This alert will be updated again at 900am on August 28... 2016.

An air quality alert means that particulates have been trending
upwards and that an exceedence of the 24 hour National ambient air
quality Standard (naaqs) has occurred or may occur in the near
future.

Particulate levels in West Yellowstone are unhealthy for sensitive
groups.

When air quality is unhealthy for sensitive groups... state and local
health officials recommend that people with respiratory or heart
disease... the elderly and children should limit prolonged exertion.

For more information... visit the Montana department of environmental
quality at www.Todaysair.Mt.Gov.